HKNW/WIL METAR and TAF weather

Enter ICAO airport designator
Station Type Date Time Source
HKNW METAR 2021/02/28 00:00 UTC NOAA

HKNW 280000Z 00000KT CAVOK 1608 Q1018


Station Type Date Time Source
HKNW Decoded METAR 2021/02/28 00:00 UTC NOAA

Nairobi / Wilson, Kenya (HKNW) 01-19S 036-49E 1679M
Feb 27, 2021 - 07:00 PM EST / 2021.02.28 0000 UTC
Wind: Calm:0
Visibility: greater than 7 mile(s):0
Pressure (altimeter): 30.06 in. Hg (1018 hPa)
ob: HKNW 280000Z 00000KT CAVOK 1608 Q1018
cycle: 0

Station Type Date Time Source
HKNW TAF 2021/02/27 06:45 UTC NOAA

TAF TAF HKNW 270500Z 2706/2806 07010KT 9999 FEW027
BECMG 2720/2723 36005KT CAVOK

Example: see airport list